createdAt,value
2022-11-27T00:01:33.324Z,101514.34
2022-11-27T00:04:00.697Z,101504.06
2022-11-27T00:06:29.419Z,101512.88
2022-11-27T00:09:01.263Z,101505.75
2022-11-27T00:11:31.035Z,101507.69
2022-11-27T00:13:58.580Z,101497.19
2022-11-27T00:16:27.273Z,101497.06
2022-11-27T00:18:54.535Z,101506.22
2022-11-27T00:21:24.822Z,101491.09
2022-11-27T00:23:53.626Z,101487.91
2022-11-27T00:26:22.438Z,101507.97
2022-11-27T00:28:50.657Z,101496.00
2022-11-27T00:31:21.447Z,101499.03
2022-11-27T00:33:49.243Z,101497.41
2022-11-27T00:36:16.904Z,101506.38
2022-11-27T00:38:44.097Z,101506.78
2022-11-27T00:41:23.205Z,101499.03
2022-11-27T00:43:50.835Z,101490.59
2022-11-27T00:46:25.371Z,101501.97
2022-11-27T00:48:56.668Z,101500.34
2022-11-27T00:51:25.017Z,101498.28
2022-11-27T00:53:53.474Z,101507.78
2022-11-27T00:56:26.424Z,101500.94
2022-11-27T00:58:54.094Z,101501.66
2022-11-27T01:01:27.683Z,101497.50
2022-11-27T01:03:56.280Z,101491.50
2022-11-27T01:06:24.842Z,101489.31
2022-11-27T01:08:52.275Z,101488.97
2022-11-27T01:11:23.018Z,101483.06
2022-11-27T01:13:50.214Z,101487.06
2022-11-27T01:16:21.085Z,101490.50
2022-11-27T01:18:49.528Z,101494.81
2022-11-27T01:21:19.804Z,101474.91
2022-11-27T01:23:48.231Z,101495.75
2022-11-27T01:26:17.894Z,101495.09
2022-11-27T01:28:45.923Z,101492.53
2022-11-27T01:31:16.852Z,101490.16
2022-11-27T01:33:46.435Z,101496.50
2022-11-27T01:36:15.875Z,101488.97
2022-11-27T01:38:43.383Z,101499.28
2022-11-27T01:41:24.002Z,101501.97
2022-11-27T01:43:55.920Z,101489.38
2022-11-27T01:46:29.310Z,101501.09
2022-11-27T01:49:08.866Z,101495.72
2022-11-27T01:51:46.035Z,101496.66
2022-11-27T01:54:15.197Z,101485.53
2022-11-27T01:56:46.012Z,101502.47
2022-11-27T01:59:14.014Z,101501.47
2022-11-27T02:01:41.480Z,101492.44
2022-11-27T02:04:08.657Z,101504.69
2022-11-27T02:06:36.214Z,101504.16
2022-11-27T02:09:03.881Z,101497.69
2022-11-27T02:11:58.634Z,101494.69
2022-11-27T02:15:00.998Z,101489.25
2022-11-27T02:17:36.646Z,101503.03
2022-11-27T02:20:29.219Z,101491.56
2022-11-27T02:23:30.739Z,101490.28
2022-11-27T02:26:12.438Z,101495.81
2022-11-27T02:29:02.553Z,101494.16
2022-11-27T02:31:53.092Z,101496.44
2022-11-27T02:34:49.615Z,101487.34
2022-11-27T02:37:32.535Z,101492.94
2022-11-27T02:40:26.328Z,101489.13
2022-11-27T02:43:06.466Z,101493.91
2022-11-27T02:45:55.755Z,101496.81
2022-11-27T02:48:27.229Z,101504.47
2022-11-27T02:50:56.030Z,101497.47
2022-11-27T02:53:28.668Z,101501.91
2022-11-27T02:55:58.283Z,101496.84
2022-11-27T02:58:28.463Z,101497.66
2022-11-27T03:00:58.010Z,101499.16
2022-11-27T03:03:30.016Z,101493.66
2022-11-27T03:06:03.566Z,101500.19
2022-11-27T03:08:51.326Z,101498.81
2022-11-27T03:11:18.852Z,101489.16
2022-11-27T03:13:51.754Z,101492.59
2022-11-27T03:16:49.876Z,101494.13
2022-11-27T03:19:20.195Z,101493.06
2022-11-27T03:21:52.686Z,101502.22
2022-11-27T03:24:19.987Z,101498.81
2022-11-27T03:26:48.051Z,101506.78
2022-11-27T03:29:20.548Z,101500.06
2022-11-27T03:31:49.424Z,101500.72
2022-11-27T03:34:16.797Z,101505.31
2022-11-27T03:36:45.702Z,101509.50
2022-11-27T03:39:13.409Z,101499.03
2022-11-27T03:41:53.592Z,101507.56
2022-11-27T03:44:32.900Z,101505.75
2022-11-27T03:47:30.436Z,101505.72
2022-11-27T03:50:12.961Z,101503.44
2022-11-27T03:53:00.536Z,101506.31
2022-11-27T03:55:46.416Z,101502.25
2022-11-27T03:58:26.084Z,101500.13
2022-11-27T04:00:54.811Z,101486.09
2022-11-27T04:03:28.643Z,101488.59
2022-11-27T04:05:56.665Z,101498.34
2022-11-27T04:08:25.622Z,101493.22
2022-11-27T04:10:52.778Z,101503.84
2022-11-27T04:13:20.237Z,101496.94
2022-11-27T04:15:47.745Z,101495.88
2022-11-27T04:18:15.344Z,101498.88
2022-11-27T04:20:42.538Z,101503.78
2022-11-27T04:23:10.576Z,101492.16
2022-11-27T04:25:37.794Z,101498.66
2022-11-27T04:28:05.352Z,101489.72
2022-11-27T04:30:32.474Z,101500.53
2022-11-27T04:32:59.913Z,101496.56
2022-11-27T04:35:27.080Z,101493.91
2022-11-27T04:37:56.648Z,101499.16
2022-11-27T04:40:24.075Z,101492.72
2022-11-27T04:42:52.132Z,101488.72
2022-11-27T04:45:19.429Z,101489.25
2022-11-27T04:47:46.866Z,101498.13
2022-11-27T04:50:14.080Z,101482.53
2022-11-27T04:52:41.557Z,101495.09
2022-11-27T04:55:09.313Z,101482.53
2022-11-27T04:57:36.781Z,101494.91
2022-11-27T05:00:05.342Z,101496.44
2022-11-27T05:02:33.021Z,101502.53
2022-11-27T05:05:00.305Z,101506.19
2022-11-27T05:07:27.993Z,101499.09
2022-11-27T05:09:55.174Z,101497.22
2022-11-27T05:12:22.736Z,101493.63
2022-11-27T05:14:49.899Z,101504.19
2022-11-27T05:17:17.375Z,101493.88
2022-11-27T05:19:44.532Z,101496.16
2022-11-27T05:22:12.004Z,101486.06
2022-11-27T05:24:39.360Z,101493.97
2022-11-27T05:27:07.009Z,101483.84
2022-11-27T05:29:34.393Z,101481.75
2022-11-27T05:32:01.960Z,101483.16
2022-11-27T05:34:29.108Z,101474.69
2022-11-27T05:36:56.617Z,101468.47
2022-11-27T05:39:24.023Z,101462.69
2022-11-27T05:41:51.477Z,101485.06
2022-11-27T05:44:18.655Z,101465.56
2022-11-27T05:46:46.241Z,101465.63
2022-11-27T05:49:15.708Z,101463.88
2022-11-27T05:51:50.660Z,101455.59
2022-11-27T05:54:19.123Z,101463.84
2022-11-27T05:56:46.649Z,101466.09
2022-11-27T05:59:14.579Z,101471.09
2022-11-27T06:01:42.760Z,101469.06
2022-11-27T06:04:09.995Z,101472.13
2022-11-27T06:06:37.474Z,101472.63
2022-11-27T06:09:08.059Z,101459.59
2022-11-27T06:11:39.822Z,101465.19
2022-11-27T06:14:11.068Z,101467.72
2022-11-27T06:16:38.835Z,101479.78
2022-11-27T06:19:06.071Z,101462.31
2022-11-27T06:21:33.630Z,101472.38
2022-11-27T06:24:00.770Z,101481.22
2022-11-27T06:26:30.786Z,101481.53
2022-11-27T06:28:59.432Z,101491.94
2022-11-27T06:31:30.260Z,101492.03
2022-11-27T06:33:58.358Z,101488.97
2022-11-27T06:36:29.887Z,101481.66
2022-11-27T06:38:57.173Z,101481.41
2022-11-27T06:41:27.116Z,101493.25
2022-11-27T06:43:55.514Z,101491.16
2022-11-27T06:46:23.996Z,101478.22
2022-11-27T06:48:53.235Z,101484.84
2022-11-27T06:51:26.016Z,101492.28
2022-11-27T06:53:53.930Z,101481.41
2022-11-27T06:56:25.333Z,101481.63
2022-11-27T06:58:54.662Z,101487.97
2022-11-27T07:01:23.738Z,101473.22
2022-11-27T07:03:51.510Z,101481.47
2022-11-27T07:06:23.053Z,101474.06
2022-11-27T07:08:50.900Z,101490.16
2022-11-27T07:11:21.083Z,101482.59
2022-11-27T07:13:49.832Z,101476.03
2022-11-27T07:16:18.578Z,101488.50
2022-11-27T07:18:48.710Z,101488.19
2022-11-27T07:21:16.968Z,101491.88
2022-11-27T07:23:44.372Z,101494.97
2022-11-27T07:26:17.606Z,101501.47
2022-11-27T07:28:45.972Z,101493.25
2022-11-27T07:31:18.979Z,101499.19
2022-11-27T07:33:46.964Z,101493.91
2022-11-27T07:36:23.521Z,101504.91
2022-11-27T07:38:50.712Z,101495.59
2022-11-27T07:41:18.616Z,101500.00
2022-11-27T07:43:46.662Z,101501.19
2022-11-27T07:46:20.544Z,101498.63
2022-11-27T07:48:47.993Z,101499.34
2022-11-27T07:51:18.226Z,101500.53
2022-11-27T07:53:46.152Z,101495.47
2022-11-27T07:56:15.850Z,101507.84
2022-11-27T07:58:43.443Z,101508.88
2022-11-27T08:01:14.029Z,101500.09
2022-11-27T08:03:44.364Z,101495.41
2022-11-27T08:06:26.075Z,101496.25
2022-11-27T08:08:56.726Z,101514.34
2022-11-27T08:11:27.402Z,101504.03
2022-11-27T08:14:02.793Z,101508.56
2022-11-27T08:16:31.548Z,101517.78
2022-11-27T08:18:59.110Z,101514.84
2022-11-27T08:21:27.367Z,101497.06
2022-11-27T08:23:54.567Z,101511.28
2022-11-27T08:26:22.081Z,101516.72
2022-11-27T08:28:52.741Z,101510.09
2022-11-27T08:31:21.028Z,101510.16
2022-11-27T08:33:48.316Z,101506.69
2022-11-27T08:36:18.414Z,101504.91
2022-11-27T08:38:47.001Z,101511.88
2022-11-27T08:41:14.577Z,101517.56
2022-11-27T08:43:41.791Z,101518.63
2022-11-27T08:46:10.373Z,101521.81
2022-11-27T08:48:37.602Z,101518.63
2022-11-27T08:51:10.761Z,101516.22
2022-11-27T08:53:38.074Z,101511.88
2022-11-27T08:56:11.854Z,101518.31
2022-11-27T08:58:41.095Z,101512.28
2022-11-27T09:01:16.289Z,101507.97
2022-11-27T09:03:43.737Z,101504.72
2022-11-27T09:06:13.839Z,101521.16
2022-11-27T09:08:42.401Z,101520.09
2022-11-27T09:11:10.336Z,101515.31
2022-11-27T09:13:40.193Z,101529.13
2022-11-27T09:16:10.370Z,101528.66
2022-11-27T09:18:38.695Z,101527.63
2022-11-27T09:21:10.798Z,101530.81
2022-11-27T09:23:38.812Z,101534.13
2022-11-27T09:26:08.930Z,101520.16
2022-11-27T09:28:37.456Z,101534.22
2022-11-27T09:31:06.719Z,101522.06
2022-11-27T09:33:36.362Z,101524.41
2022-11-27T09:36:09.130Z,101517.28
2022-11-27T09:38:38.392Z,101526.44
2022-11-27T09:41:20.088Z,101526.56
2022-11-27T09:43:58.120Z,101530.00
2022-11-27T09:46:40.895Z,101526.56
2022-11-27T09:49:14.553Z,101516.16
2022-11-27T09:52:14.827Z,101526.09
2022-11-27T09:55:00.313Z,101525.50
2022-11-27T09:57:32.799Z,101524.41
2022-11-27T10:00:10.863Z,101512.69
2022-11-27T10:02:38.352Z,101508.22
2022-11-27T10:05:17.843Z,101517.53
2022-11-27T10:08:10.968Z,101514.25
2022-11-27T10:10:45.601Z,101522.84
2022-11-27T10:13:43.268Z,101509.41
2022-11-27T10:16:33.959Z,101510.44
2022-11-27T10:19:25.311Z,101502.78
2022-11-27T10:22:00.054Z,101511.38
2022-11-27T10:25:01.054Z,101514.13
2022-11-27T10:27:38.235Z,101509.28
2022-11-27T10:30:18.486Z,101505.75
2022-11-27T10:32:56.783Z,101498.28
2022-11-27T10:35:26.661Z,101505.84
2022-11-27T10:38:14.912Z,101505.84
2022-11-27T10:41:00.869Z,101490.09
2022-11-27T10:43:28.350Z,101493.53
2022-11-27T10:46:04.948Z,101493.47
2022-11-27T10:48:33.497Z,101489.63
2022-11-27T10:51:00.988Z,101486.81
2022-11-27T10:53:43.017Z,101492.50
2022-11-27T10:56:16.220Z,101485.28
2022-11-27T10:58:50.248Z,101493.31
2022-11-27T11:01:20.661Z,101478.28
2022-11-27T11:03:48.294Z,101493.69
2022-11-27T11:06:27.124Z,101482.53
2022-11-27T11:09:04.771Z,101483.53
2022-11-27T11:11:32.147Z,101468.78
2022-11-27T11:13:59.701Z,101473.75
2022-11-27T11:16:34.838Z,101470.22
2022-11-27T11:19:03.431Z,101480.41
2022-11-27T11:21:38.767Z,101470.94
2022-11-27T11:24:40.312Z,101478.00
2022-11-27T11:27:16.326Z,101475.78
2022-11-27T11:29:46.612Z,101465.72
2022-11-27T11:32:21.793Z,101472.09
2022-11-27T11:34:59.192Z,101462.16
2022-11-27T11:37:32.006Z,101465.78
2022-11-27T11:39:59.544Z,101472.25
2022-11-27T11:42:29.900Z,101465.38
2022-11-27T11:45:13.300Z,101460.47
2022-11-27T11:47:49.972Z,101464.69
2022-11-27T11:50:35.388Z,101462.41
2022-11-27T11:53:12.856Z,101471.34
2022-11-27T11:56:01.008Z,101466.56
2022-11-27T11:58:46.911Z,101473.91
2022-11-27T12:01:32.723Z,101476.84
2022-11-27T12:04:34.038Z,101470.81
2022-11-27T12:07:17.536Z,101470.25
2022-11-27T12:09:53.665Z,101465.03
2022-11-27T12:12:55.055Z,101457.44
2022-11-27T12:15:44.741Z,101452.81
2022-11-27T12:18:21.167Z,101464.06
2022-11-27T12:21:06.648Z,101454.72
2022-11-27T12:23:49.772Z,101453.03
2022-11-27T12:26:31.477Z,101447.66
2022-11-27T12:29:29.770Z,101441.09
2022-11-27T12:32:18.510Z,101442.34
2022-11-27T12:34:55.184Z,101437.53
2022-11-27T12:37:45.347Z,101428.97
2022-11-27T12:40:22.887Z,101422.66
2022-11-27T12:43:07.200Z,101412.38
2022-11-27T12:45:42.110Z,101427.06
2022-11-27T12:48:36.203Z,101422.81
2022-11-27T12:51:12.408Z,101418.84
2022-11-27T12:53:45.557Z,101413.94
2022-11-27T12:56:21.699Z,101423.59
2022-11-27T12:58:57.174Z,101424.16
2022-11-27T13:01:31.454Z,101412.09
2022-11-27T13:04:19.905Z,101422.75
2022-11-27T13:07:00.025Z,101424.63
2022-11-27T13:09:51.581Z,101430.78
2022-11-27T13:12:37.777Z,101430.91
2022-11-27T13:15:16.895Z,101425.16
2022-11-27T13:17:48.208Z,101434.88
2022-11-27T13:20:20.420Z,101431.25
2022-11-27T13:22:50.001Z,101427.19
2022-11-27T13:25:17.431Z,101433.84
2022-11-27T13:27:49.423Z,101438.56
2022-11-27T13:30:23.938Z,101433.69
2022-11-27T13:32:55.262Z,101423.22
2022-11-27T13:35:45.094Z,101432.41
2022-11-27T13:38:22.832Z,101430.94
2022-11-27T13:40:53.320Z,101435.72
2022-11-27T13:43:34.400Z,101428.56
2022-11-27T13:46:07.417Z,101421.19
2022-11-27T13:48:38.418Z,101429.50
2022-11-27T13:51:08.315Z,101436.16
2022-11-27T13:53:42.148Z,101418.25
2022-11-27T13:56:10.071Z,101427.19
2022-11-27T13:58:42.952Z,101423.72
2022-11-27T14:01:20.627Z,101419.75
2022-11-27T14:03:49.539Z,101427.16
2022-11-27T14:06:30.656Z,101431.38
2022-11-27T14:09:01.017Z,101420.34
2022-11-27T14:11:44.445Z,101430.25
2022-11-27T14:14:27.245Z,101434.66
2022-11-27T14:17:02.722Z,101423.72
2022-11-27T14:19:45.334Z,101427.34
2022-11-27T14:23:11.308Z,101416.25
2022-11-27T14:25:39.055Z,101416.63
2022-11-27T14:28:21.474Z,101422.16
2022-11-27T14:31:00.316Z,101417.25
2022-11-27T14:33:59.550Z,101416.69
2022-11-27T14:36:30.759Z,101426.09
2022-11-27T14:38:59.130Z,101422.44
2022-11-27T14:41:28.181Z,101426.03
2022-11-27T14:44:02.613Z,101427.03
2022-11-27T14:46:32.681Z,101425.44
2022-11-27T14:48:59.886Z,101411.50
2022-11-27T14:51:29.793Z,101418.41
2022-11-27T14:54:01.353Z,101412.28
2022-11-27T14:56:32.625Z,101422.66
2022-11-27T14:59:00.992Z,101418.91
2022-11-27T15:01:34.666Z,101419.56
2022-11-27T15:04:23.497Z,101423.00
2022-11-27T15:06:51.693Z,101415.31
2022-11-27T15:09:31.736Z,101418.84
2022-11-27T15:12:17.442Z,101414.44
2022-11-27T15:15:06.568Z,101423.94
2022-11-27T15:17:37.379Z,101413.25
2022-11-27T15:20:14.861Z,101405.06
2022-11-27T15:22:57.456Z,101407.94
2022-11-27T15:25:39.139Z,101413.09
2022-11-27T15:28:36.174Z,101410.59
2022-11-27T15:31:24.978Z,101415.13
2022-11-27T15:34:08.971Z,101410.06
2022-11-27T15:36:42.596Z,101422.16
2022-11-27T15:39:22.270Z,101416.47
2022-11-27T15:42:00.246Z,101418.19
2022-11-27T15:44:31.222Z,101413.06
2022-11-27T15:47:01.068Z,101419.81
2022-11-27T15:49:28.816Z,101408.34
2022-11-27T15:51:57.313Z,101415.69
2022-11-27T15:54:25.340Z,101409.91
2022-11-27T15:56:52.541Z,101414.53
2022-11-27T15:59:22.983Z,101401.66
2022-11-27T16:01:50.249Z,101413.91
2022-11-27T16:04:17.918Z,101414.69
2022-11-27T16:06:45.512Z,101413.72
2022-11-27T16:09:12.987Z,101413.09
2022-11-27T16:11:40.455Z,101404.31
2022-11-27T16:14:07.980Z,101408.78
2022-11-27T16:16:35.633Z,101399.00
2022-11-27T16:19:06.466Z,101395.41
2022-11-27T16:21:35.744Z,101393.53
2022-11-27T16:24:06.133Z,101399.50
2022-11-27T16:26:33.829Z,101391.47
2022-11-27T16:29:01.380Z,101379.16
2022-11-27T16:31:28.974Z,101381.97
2022-11-27T16:33:56.512Z,101383.81
2022-11-27T16:36:25.540Z,101389.97
2022-11-27T16:38:54.699Z,101377.78
2022-11-27T16:41:25.325Z,101389.97
2022-11-27T16:43:56.730Z,101384.47
2022-11-27T16:46:28.118Z,101391.41
2022-11-27T16:48:58.927Z,101378.38
2022-11-27T16:51:31.369Z,101386.34
2022-11-27T16:54:01.207Z,101377.59
2022-11-27T16:56:30.417Z,101382.75
2022-11-27T16:59:02.782Z,101379.47
2022-11-27T17:01:34.705Z,101375.13
2022-11-27T17:04:09.144Z,101379.00
2022-11-27T17:06:38.839Z,101386.22
2022-11-27T17:09:08.101Z,101374.94
2022-11-27T17:11:37.082Z,101373.16
2022-11-27T17:14:08.670Z,101380.97
2022-11-27T17:16:39.516Z,101366.22
2022-11-27T17:19:07.580Z,101364.38
2022-11-27T17:21:35.486Z,101377.88
2022-11-27T17:24:14.345Z,101378.59
2022-11-27T17:26:45.253Z,101383.31
2022-11-27T17:29:14.929Z,101376.03
2022-11-27T17:31:42.635Z,101377.00
2022-11-27T17:34:13.317Z,101374.72
2022-11-27T17:36:43.030Z,101359.09
2022-11-27T17:39:13.047Z,101368.69
2022-11-27T17:41:41.680Z,101355.38
2022-11-27T17:44:09.140Z,101365.34
2022-11-27T17:46:37.193Z,101365.41
2022-11-27T17:49:07.320Z,101347.41
2022-11-27T17:51:36.278Z,101363.06
2022-11-27T17:54:05.722Z,101358.31
2022-11-27T17:56:34.889Z,101358.19
2022-11-27T17:59:03.293Z,101364.34
2022-11-27T18:01:31.210Z,101367.09
2022-11-27T18:04:01.038Z,101353.56
2022-11-27T18:06:31.332Z,101353.34
2022-11-27T18:08:59.905Z,101352.09
2022-11-27T18:11:30.316Z,101355.06
2022-11-27T18:14:01.559Z,101341.13
2022-11-27T18:16:36.947Z,101350.59
2022-11-27T18:19:07.537Z,101343.97
2022-11-27T18:21:35.496Z,101345.06
2022-11-27T18:29:40.202Z,101336.06
2022-11-27T18:32:08.302Z,101344.56
2022-11-27T18:34:35.973Z,101331.44
2022-11-27T18:37:04.417Z,101338.47
2022-11-27T18:39:32.204Z,101338.09
2022-11-27T18:41:59.688Z,101336.53
2022-11-27T18:44:27.205Z,101343.69
2022-11-27T18:46:54.985Z,101342.47
2022-11-27T18:49:23.932Z,101331.25
2022-11-27T18:51:53.090Z,101339.50
2022-11-27T18:54:21.533Z,101344.56
2022-11-27T18:56:48.995Z,101335.19
2022-11-27T18:59:16.558Z,101341.53
2022-11-27T19:01:45.614Z,101337.28
2022-11-27T19:04:13.305Z,101346.09
2022-11-27T19:06:42.430Z,101350.78
2022-11-27T19:09:12.322Z,101350.59
2022-11-27T19:11:40.111Z,101350.44
2022-11-27T19:14:08.027Z,101349.28
2022-11-27T19:16:41.829Z,101342.94
2022-11-27T19:19:30.031Z,101335.81
2022-11-27T19:21:57.593Z,101343.94
2022-11-27T19:24:26.209Z,101335.88
2022-11-27T19:26:54.224Z,101337.59
2022-11-27T19:29:21.730Z,101341.97
2022-11-27T19:31:48.948Z,101343.09
2022-11-27T19:34:16.449Z,101339.31
2022-11-27T19:36:43.956Z,101334.41
2022-11-27T19:39:14.458Z,101329.94
2022-11-27T19:41:43.423Z,101322.34
2022-11-27T19:44:12.706Z,101326.31
2022-11-27T19:46:41.205Z,101333.00
2022-11-27T19:49:14.183Z,101327.97
2022-11-27T19:51:41.930Z,101326.66
2022-11-27T19:54:13.145Z,101327.00
2022-11-27T19:56:42.337Z,101316.81
2022-11-27T19:59:11.309Z,101313.78
2022-11-27T20:01:40.775Z,101302.59
2022-11-27T20:04:11.357Z,101304.34
2022-11-27T20:06:39.942Z,101314.84
2022-11-27T20:09:08.286Z,101327.13
2022-11-27T20:11:36.430Z,101310.50
2022-11-27T20:14:06.629Z,101309.91
2022-11-27T20:16:35.736Z,101316.41
2022-11-27T20:19:06.080Z,101311.28
2022-11-27T20:21:36.615Z,101302.91
2022-11-27T20:24:04.579Z,101307.63
2022-11-27T20:26:37.082Z,101295.56
2022-11-27T20:29:06.370Z,101310.41
2022-11-27T20:31:36.460Z,101313.59
2022-11-27T20:34:06.753Z,101314.38
2022-11-27T20:36:37.971Z,101312.63
2022-11-27T20:39:05.897Z,101317.41
2022-11-27T20:41:33.965Z,101310.94
2022-11-27T20:44:04.829Z,101310.28
2022-11-27T20:46:33.227Z,101304.19
2022-11-27T20:49:01.966Z,101300.56
2022-11-27T20:51:33.552Z,101314.50
2022-11-27T20:54:09.156Z,101313.66
2022-11-27T20:56:36.567Z,101307.50
2022-11-27T20:59:05.185Z,101312.50
2022-11-27T21:01:35.496Z,101304.72
2022-11-27T21:04:09.617Z,101302.78
2022-11-27T21:06:43.476Z,101310.56
2022-11-27T21:09:13.968Z,101309.72
2022-11-27T21:11:42.301Z,101305.97
2022-11-27T21:14:12.803Z,101303.09
2022-11-27T21:16:43.284Z,101288.53
2022-11-27T21:19:19.863Z,101301.16
2022-11-27T21:21:47.824Z,101299.28
2022-11-27T21:24:15.764Z,101294.69
2022-11-27T21:26:43.392Z,101297.34
2022-11-27T21:29:12.527Z,101286.94
2022-11-27T21:31:46.116Z,101294.22
2022-11-27T21:34:15.906Z,101276.72
2022-11-27T21:36:44.348Z,101285.50
2022-11-27T21:39:13.409Z,101277.75
2022-11-27T21:41:41.365Z,101276.97
2022-11-27T21:44:09.749Z,101282.94
2022-11-27T21:46:37.642Z,101287.34
2022-11-27T21:49:06.819Z,101283.84
2022-11-27T21:51:34.180Z,101290.09
2022-11-27T21:54:06.960Z,101286.63
2022-11-27T21:56:37.712Z,101288.38
2022-11-27T21:59:06.928Z,101279.09
2022-11-27T22:01:34.543Z,101287.00
2022-11-27T22:04:02.712Z,101287.78
2022-11-27T22:06:35.085Z,101283.56
2022-11-27T22:09:03.975Z,101278.44
2022-11-27T22:11:31.236Z,101281.75
2022-11-27T22:14:02.580Z,101294.91
2022-11-27T22:16:32.497Z,101291.34
2022-11-27T22:19:01.305Z,101294.13
2022-11-27T22:21:30.208Z,101276.59
2022-11-27T22:23:59.671Z,101289.66
2022-11-27T22:26:27.594Z,101288.22
2022-11-27T22:28:57.122Z,101285.38
2022-11-27T22:31:29.703Z,101289.66
2022-11-27T22:33:57.714Z,101288.81
2022-11-27T22:36:30.372Z,101290.69
2022-11-27T22:39:00.789Z,101279.16
2022-11-27T22:41:30.885Z,101286.81
2022-11-27T22:44:00.478Z,101280.69
2022-11-27T22:46:33.232Z,101271.00
2022-11-27T22:49:03.591Z,101272.63
2022-11-27T22:51:32.863Z,101258.00
2022-11-27T22:54:01.809Z,101266.69
2022-11-27T22:56:29.085Z,101265.97
2022-11-27T22:59:17.592Z,101260.94
2022-11-27T23:01:44.796Z,101247.06
2022-11-27T23:04:12.244Z,101252.53
2022-11-27T23:06:39.489Z,101263.09
2022-11-27T23:09:07.940Z,101263.09
2022-11-27T23:11:35.063Z,101265.75
2022-11-27T23:14:03.473Z,101246.72
2022-11-27T23:16:30.981Z,101265.00
2022-11-27T23:18:58.432Z,101256.63
2022-11-27T23:21:27.354Z,101246.34
2022-11-27T23:23:54.839Z,101253.84
2022-11-27T23:26:23.980Z,101251.00
2022-11-27T23:28:53.564Z,101249.63
2022-11-27T23:31:31.925Z,101253.19
2022-11-27T23:34:02.014Z,101253.28
2022-11-27T23:36:31.378Z,101255.34
2022-11-27T23:39:03.715Z,101265.28
2022-11-27T23:41:31.299Z,101268.84
2022-11-27T23:43:59.445Z,101254.56
2022-11-27T23:46:29.437Z,101265.41
2022-11-27T23:48:59.499Z,101264.38
2022-11-27T23:51:29.881Z,101253.38
2022-11-27T23:53:58.233Z,101268.59
2022-11-27T23:56:28.210Z,101258.66
2022-11-27T23:58:56.515Z,101268.09
